sensor_id;sensor_type;location;lat;lon;timestamp;pressure;altitude;pressure_sealevel;temperature;humidity
59531;BME280;45349;48.692;8.186;2023-01-25T00:02:30;100256.16;;;1.72;100.00
59531;BME280;45349;48.692;8.186;2023-01-25T00:05:00;100250.38;;;1.65;100.00
59531;BME280;45349;48.692;8.186;2023-01-25T00:07:28;100241.63;;;1.71;100.00
59531;BME280;45349;48.692;8.186;2023-01-25T00:09:54;100245.09;;;1.70;100.00
59531;BME280;45349;48.692;8.186;2023-01-25T00:12:26;100234.69;;;1.73;100.00
59531;BME280;45349;48.692;8.186;2023-01-25T00:14:53;100230.63;;;1.66;100.00
59531;BME280;45349;48.692;8.186;2023-01-25T00:17:23;100225.59;;;1.62;100.00
59531;BME280;45349;48.692;8.186;2023-01-25T00:19:53;100227.28;;;1.64;100.00
59531;BME280;45349;48.692;8.186;2023-01-25T00:22:20;100217.09;;;1.60;100.00
59531;BME280;45349;48.692;8.186;2023-01-25T00:24:48;100215.59;;;1.55;100.00
59531;BME280;45349;48.692;8.186;2023-01-25T00:27:19;100218.16;;;1.55;100.00
59531;BME280;45349;48.692;8.186;2023-01-25T00:29:46;100212.16;;;1.54;100.00
59531;BME280;45349;48.692;8.186;2023-01-25T00:32:32;100210.38;;;1.56;100.00
59531;BME280;45349;48.692;8.186;2023-01-25T00:35:06;100206.41;;;1.47;100.00
59531;BME280;45349;48.692;8.186;2023-01-25T00:37:39;100211.38;;;1.52;100.00
59531;BME280;45349;48.692;8.186;2023-01-25T00:40:10;100208.78;;;1.52;100.00
59531;BME280;45349;48.692;8.186;2023-01-25T00:42:45;100201.19;;;1.49;100.00
59531;BME280;45349;48.692;8.186;2023-01-25T00:45:21;100198.50;;;1.52;100.00
59531;BME280;45349;48.692;8.186;2023-01-25T00:47:53;100198.50;;;1.52;100.00
59531;BME280;45349;48.692;8.186;2023-01-25T00:50:23;100200.28;;;1.50;100.00
59531;BME280;45349;48.692;8.186;2023-01-25T00:52:50;100197.69;;;1.52;100.00
59531;BME280;45349;48.692;8.186;2023-01-25T00:55:18;100202.88;;;1.50;100.00
59531;BME280;45349;48.692;8.186;2023-01-25T00:57:47;100196.94;;;1.48;100.00
59531;BME280;45349;48.692;8.186;2023-01-25T01:00:18;100193.56;;;1.46;100.00
59531;BME280;45349;48.692;8.186;2023-01-25T01:02:45;100199.50;;;1.48;100.00
59531;BME280;45349;48.692;8.186;2023-01-25T01:05:13;100194.34;;;1.48;100.00
59531;BME280;45349;48.692;8.186;2023-01-25T01:07:40;100192.63;;;1.49;100.00
59531;BME280;45349;48.692;8.186;2023-01-25T01:10:09;100193.63;;;1.44;100.00
59531;BME280;45349;48.692;8.186;2023-01-25T01:12:39;100185.81;;;1.47;100.00
59531;BME280;45349;48.692;8.186;2023-01-25T01:15:07;100181.38;;;1.51;100.00
59531;BME280;45349;48.692;8.186;2023-01-25T01:17:35;100172.72;;;1.54;100.00
59531;BME280;45349;48.692;8.186;2023-01-25T01:20:01;100176.19;;;1.53;100.00
59531;BME280;45349;48.692;8.186;2023-01-25T01:22:28;100173.66;;;1.51;100.00
59531;BME280;45349;48.692;8.186;2023-01-25T01:24:55;100183.91;;;1.53;100.00
59531;BME280;45349;48.692;8.186;2023-01-25T01:27:21;100188.22;;;1.52;100.00
59531;BME280;45349;48.692;8.186;2023-01-25T01:29:49;100189.09;;;1.51;100.00
59531;BME280;45349;48.692;8.186;2023-01-25T01:32:17;100181.44;;;1.50;100.00
59531;BME280;45349;48.692;8.186;2023-01-25T01:34:44;100203.66;;;1.52;100.00
59531;BME280;45349;48.692;8.186;2023-01-25T01:37:11;100202.72;;;1.55;100.00
59531;BME280;45349;48.692;8.186;2023-01-25T01:39:37;100202.63;;;1.58;100.00
59531;BME280;45349;48.692;8.186;2023-01-25T01:42:04;100192.19;;;1.61;100.00
59531;BME280;45349;48.692;8.186;2023-01-25T01:44:44;100187.88;;;1.61;100.00
59531;BME280;45349;48.692;8.186;2023-01-25T01:47:17;100184.53;;;1.59;100.00
59531;BME280;45349;48.692;8.186;2023-01-25T01:49:50;100183.56;;;1.62;100.00
59531;BME280;45349;48.692;8.186;2023-01-25T01:52:20;100186.00;;;1.67;100.00
59531;BME280;45349;48.692;8.186;2023-01-25T01:54:53;100189.50;;;1.64;100.00
59531;BME280;45349;48.692;8.186;2023-01-25T01:57:24;100188.72;;;1.62;100.00
59531;BME280;45349;48.692;8.186;2023-01-25T01:59:55;100193.84;;;1.62;100.00
59531;BME280;45349;48.692;8.186;2023-01-25T02:02:25;100192.31;;;1.58;100.00
59531;BME280;45349;48.692;8.186;2023-01-25T02:04:54;100190.75;;;1.54;100.00
59531;BME280;45349;48.692;8.186;2023-01-25T02:07:29;100189.06;;;1.53;100.00
59531;BME280;45349;48.692;8.186;2023-01-25T02:09:57;100182.25;;;1.52;100.00
59531;BME280;45349;48.692;8.186;2023-01-25T02:12:25;100176.09;;;1.56;100.00
59531;BME280;45349;48.692;8.186;2023-01-25T02:14:53;100177.13;;;1.50;100.00
59531;BME280;45349;48.692;8.186;2023-01-25T02:17:23;100177.91;;;1.52;100.00
59531;BME280;45349;48.692;8.186;2023-01-25T02:19:58;100172.66;;;1.55;100.00
59531;BME280;45349;48.692;8.186;2023-01-25T02:22:33;100173.44;;;1.57;100.00
59531;BME280;45349;48.692;8.186;2023-01-25T02:25:07;100166.56;;;1.58;100.00
59531;BME280;45349;48.692;8.186;2023-01-25T02:27:37;100165.91;;;1.53;100.00
59531;BME280;45349;48.692;8.186;2023-01-25T02:30:06;100162.69;;;1.46;100.00
59531;BME280;45349;48.692;8.186;2023-01-25T02:32:32;100170.53;;;1.43;100.00
59531;BME280;45349;48.692;8.186;2023-01-25T02:34:59;100167.59;;;1.28;100.00
59531;BME280;45349;48.692;8.186;2023-01-25T02:37:26;100162.88;;;1.16;100.00
59531;BME280;45349;48.692;8.186;2023-01-25T02:39:53;100157.13;;;1.08;100.00
59531;BME280;45349;48.692;8.186;2023-01-25T02:42:24;100158.97;;;1.06;100.00
59531;BME280;45349;48.692;8.186;2023-01-25T02:44:51;100162.41;;;1.05;100.00
59531;BME280;45349;48.692;8.186;2023-01-25T02:47:18;100156.53;;;1.01;100.00
59531;BME280;45349;48.692;8.186;2023-01-25T02:49:45;100153.94;;;1.01;100.00
59531;BME280;45349;48.692;8.186;2023-01-25T02:52:12;100149.69;;;1.00;100.00
59531;BME280;45349;48.692;8.186;2023-01-25T02:54:38;100153.16;;;0.99;100.00
59531;BME280;45349;48.692;8.186;2023-01-25T02:57:05;100152.38;;;0.97;100.00
59531;BME280;45349;48.692;8.186;2023-01-25T02:59:41;100147.41;;;0.92;100.00
59531;BME280;45349;48.692;8.186;2023-01-25T03:02:09;100144.88;;;0.91;100.00
59531;BME280;45349;48.692;8.186;2023-01-25T03:04:36;100142.28;;;0.91;100.00
59531;BME280;45349;48.692;8.186;2023-01-25T03:07:03;100150.88;;;0.91;100.00
59531;BME280;45349;48.692;8.186;2023-01-25T03:09:29;100146.59;;;0.90;100.00
59531;BME280;45349;48.692;8.186;2023-01-25T03:11:57;100144.03;;;0.90;100.00
59531;BME280;45349;48.692;8.186;2023-01-25T03:14:24;100149.09;;;0.93;100.00
59531;BME280;45349;48.692;8.186;2023-01-25T03:16:52;100141.41;;;0.92;100.00
59531;BME280;45349;48.692;8.186;2023-01-25T03:19:21;100146.72;;;0.87;100.00
59531;BME280;45349;48.692;8.186;2023-01-25T03:21:48;100138.22;;;0.85;100.00
59531;BME280;45349;48.692;8.186;2023-01-25T03:24:14;100139.09;;;0.84;100.00
59531;BME280;45349;48.692;8.186;2023-01-25T03:26:45;100136.66;;;0.79;100.00
59531;BME280;45349;48.692;8.186;2023-01-25T03:29:34;100130.00;;;0.73;100.00
59531;BME280;45349;48.692;8.186;2023-01-25T03:32:06;100119.78;;;0.72;100.00
59531;BME280;45349;48.692;8.186;2023-01-25T03:34:33;100126.88;;;0.64;100.00
59531;BME280;45349;48.692;8.186;2023-01-25T03:36:59;100120.28;;;0.56;100.00
59531;BME280;45349;48.692;8.186;2023-01-25T03:39:27;100121.31;;;0.51;100.00
59531;BME280;45349;48.692;8.186;2023-01-25T03:41:54;100118.91;;;0.46;100.00
59531;BME280;45349;48.692;8.186;2023-01-25T03:44:20;100114.00;;;0.38;100.00
59531;BME280;45349;48.692;8.186;2023-01-25T03:46:48;100111.44;;;0.38;100.00
59531;BME280;45349;48.692;8.186;2023-01-25T03:49:16;100115.19;;;0.28;100.00
59531;BME280;45349;48.692;8.186;2023-01-25T03:51:44;100121.41;;;0.21;100.00
59531;BME280;45349;48.692;8.186;2023-01-25T03:54:11;100117.41;;;0.12;100.00
59531;BME280;45349;48.692;8.186;2023-01-25T03:56:38;100117.59;;;0.06;100.00
59531;BME280;45349;48.692;8.186;2023-01-25T03:59:24;100111.91;;;-0.04;100.00
59531;BME280;45349;48.692;8.186;2023-01-25T04:01:51;100118.13;;;-0.11;100.00
59531;BME280;45349;48.692;8.186;2023-01-25T04:04:19;100112.03;;;-0.09;100.00
59531;BME280;45349;48.692;8.186;2023-01-25T04:06:47;100116.69;;;-0.22;100.00
59531;BME280;45349;48.692;8.186;2023-01-25T04:09:14;100116.13;;;-0.32;100.00
59531;BME280;45349;48.692;8.186;2023-01-25T04:11:48;100112.91;;;-0.38;100.00
59531;BME280;45349;48.692;8.186;2023-01-25T04:14:14;100110.50;;;-0.45;100.00
59531;BME280;45349;48.692;8.186;2023-01-25T04:16:49;100110.41;;;-0.41;100.00
59531;BME280;45349;48.692;8.186;2023-01-25T04:19:35;100113.97;;;-0.46;100.00
59531;BME280;45349;48.692;8.186;2023-01-25T04:22:04;100114.78;;;-0.45;100.00
59531;BME280;45349;48.692;8.186;2023-01-25T04:24:35;100105.38;;;-0.45;100.00
59531;BME280;45349;48.692;8.186;2023-01-25T04:27:02;100102.72;;;-0.41;100.00
59531;BME280;45349;48.692;8.186;2023-01-25T04:29:33;100105.91;;;-0.33;100.00
59531;BME280;45349;48.692;8.186;2023-01-25T04:31:59;100099.97;;;-0.35;100.00
59531;BME280;45349;48.692;8.186;2023-01-25T04:34:28;100103.47;;;-0.38;100.00
59531;BME280;45349;48.692;8.186;2023-01-25T04:36:56;100096.63;;;-0.37;100.00
59531;BME280;45349;48.692;8.186;2023-01-25T04:39:27;100095.84;;;-0.41;100.00
59531;BME280;45349;48.692;8.186;2023-01-25T04:41:53;100094.16;;;-0.42;100.00
59531;BME280;45349;48.692;8.186;2023-01-25T04:44:20;100097.06;;;-0.53;100.00
59531;BME280;45349;48.692;8.186;2023-01-25T04:46:47;100098.81;;;-0.55;100.00
59531;BME280;45349;48.692;8.186;2023-01-25T04:49:14;100095.13;;;-0.46;100.00
59531;BME280;45349;48.692;8.186;2023-01-25T04:51:40;100095.03;;;-0.41;100.00
59531;BME280;45349;48.692;8.186;2023-01-25T04:54:08;100097.84;;;-0.21;100.00
59531;BME280;45349;48.692;8.186;2023-01-25T04:56:35;100096.06;;;-0.19;100.00
59531;BME280;45349;48.692;8.186;2023-01-25T04:59:01;100100.19;;;-0.13;100.00
59531;BME280;45349;48.692;8.186;2023-01-25T05:01:28;100108.63;;;-0.09;100.00
59531;BME280;45349;48.692;8.186;2023-01-25T05:03:58;100101.66;;;-0.06;100.00
59531;BME280;45349;48.692;8.186;2023-01-25T05:06:34;100095.66;;;-0.05;100.00
59531;BME280;45349;48.692;8.186;2023-01-25T05:09:01;100082.91;;;-0.08;100.00
59531;BME280;45349;48.692;8.186;2023-01-25T05:11:30;100092.97;;;0.00;100.00
59531;BME280;45349;48.692;8.186;2023-01-25T05:14:06;100095.91;;;0.14;100.00
59531;BME280;45349;48.692;8.186;2023-01-25T05:16:33;100084.38;;;0.28;100.00
59531;BME280;45349;48.692;8.186;2023-01-25T05:19:01;100086.84;;;0.31;100.00
59531;BME280;45349;48.692;8.186;2023-01-25T05:21:35;100085.25;;;0.27;100.00
59531;BME280;45349;48.692;8.186;2023-01-25T05:24:19;100087.31;;;0.16;100.00
59531;BME280;45349;48.692;8.186;2023-01-25T05:26:47;100085.72;;;0.11;100.00
59531;BME280;45349;48.692;8.186;2023-01-25T05:29:26;100094.13;;;0.17;100.00
59531;BME280;45349;48.692;8.186;2023-01-25T05:32:03;100091.72;;;0.12;100.00
59531;BME280;45349;48.692;8.186;2023-01-25T05:34:31;100088.22;;;0.14;100.00
59531;BME280;45349;48.692;8.186;2023-01-25T05:36:58;100089.47;;;0.01;100.00
59531;BME280;45349;48.692;8.186;2023-01-25T05:39:25;100101.66;;;-0.06;100.00
59531;BME280;45349;48.692;8.186;2023-01-25T05:41:54;100096.81;;;-0.15;100.00
59531;BME280;45349;48.692;8.186;2023-01-25T05:44:22;100099.75;;;-0.27;100.00
59531;BME280;45349;48.692;8.186;2023-01-25T05:46:50;100088.84;;;-0.34;100.00
59531;BME280;45349;48.692;8.186;2023-01-25T05:49:17;100089.91;;;-0.43;100.00
59531;BME280;45349;48.692;8.186;2023-01-25T05:51:44;100094.25;;;-0.45;100.00
59531;BME280;45349;48.692;8.186;2023-01-25T05:54:13;100091.66;;;-0.43;100.00
59531;BME280;45349;48.692;8.186;2023-01-25T05:56:47;100092.56;;;-0.46;100.00
59531;BME280;45349;48.692;8.186;2023-01-25T05:59:16;100094.41;;;-0.50;100.00
59531;BME280;45349;48.692;8.186;2023-01-25T06:01:43;100089.31;;;-0.51;100.00
59531;BME280;45349;48.692;8.186;2023-01-25T06:04:12;100077.00;;;-0.40;100.00
59531;BME280;45349;48.692;8.186;2023-01-25T06:06:39;100075.38;;;-0.12;100.00
59531;BME280;45349;48.692;8.186;2023-01-25T06:09:06;100079.34;;;-0.04;100.00
59531;BME280;45349;48.692;8.186;2023-01-25T06:11:33;100080.13;;;0.00;100.00
59531;BME280;45349;48.692;8.186;2023-01-25T06:14:00;100081.00;;;-0.01;100.00
59531;BME280;45349;48.692;8.186;2023-01-25T06:16:28;100075.19;;;-0.06;100.00
59531;BME280;45349;48.692;8.186;2023-01-25T06:19:14;100079.72;;;0.12;100.00
59531;BME280;45349;48.692;8.186;2023-01-25T06:21:49;100077.84;;;0.18;100.00
59531;BME280;45349;48.692;8.186;2023-01-25T06:24:16;100080.13;;;0.27;100.00
59531;BME280;45349;48.692;8.186;2023-01-25T06:26:42;100078.34;;;0.29;100.00
59531;BME280;45349;48.692;8.186;2023-01-25T06:29:09;100076.13;;;0.45;100.00
59531;BME280;45349;48.692;8.186;2023-01-25T06:31:37;100075.53;;;0.37;100.00
59531;BME280;45349;48.692;8.186;2023-01-25T06:34:03;100071.31;;;0.34;100.00
59531;BME280;45349;48.692;8.186;2023-01-25T06:36:32;100065.69;;;0.23;100.00
59531;BME280;45349;48.692;8.186;2023-01-25T06:38:59;100062.44;;;0.18;100.00
59531;BME280;45349;48.692;8.186;2023-01-25T06:41:25;100055.53;;;0.20;100.00
59531;BME280;45349;48.692;8.186;2023-01-25T06:43:53;100058.25;;;0.15;100.00
59531;BME280;45349;48.692;8.186;2023-01-25T06:46:20;100054.97;;;0.10;100.00
59531;BME280;45349;48.692;8.186;2023-01-25T06:48:48;100058.25;;;0.15;100.00
59531;BME280;45349;48.692;8.186;2023-01-25T06:51:15;100052.22;;;0.16;100.00
59531;BME280;45349;48.692;8.186;2023-01-25T06:53:43;100053.22;;;0.12;100.00
59531;BME280;45349;48.692;8.186;2023-01-25T06:56:13;100048.38;;;0.03;100.00
59531;BME280;45349;48.692;8.186;2023-01-25T06:58:42;100051.19;;;-0.05;100.00
59531;BME280;45349;48.692;8.186;2023-01-25T07:01:12;100045.16;;;-0.04;100.00
59531;BME280;45349;48.692;8.186;2023-01-25T07:03:39;100046.25;;;-0.11;100.00
59531;BME280;45349;48.692;8.186;2023-01-25T07:06:11;100040.69;;;-0.26;100.00
59531;BME280;45349;48.692;8.186;2023-01-25T07:08:41;100044.25;;;-0.32;100.00
59531;BME280;45349;48.692;8.186;2023-01-25T07:11:09;100045.91;;;-0.29;100.00
59531;BME280;45349;48.692;8.186;2023-01-25T07:13:38;100046.09;;;-0.35;100.00
59531;BME280;45349;48.692;8.186;2023-01-25T07:16:07;100044.44;;;-0.38;100.00
59531;BME280;45349;48.692;8.186;2023-01-25T07:18:36;100042.84;;;-0.42;100.00
59531;BME280;45349;48.692;8.186;2023-01-25T07:21:04;100051.72;;;-0.52;100.00
59531;BME280;45349;48.692;8.186;2023-01-25T07:23:33;100052.03;;;-0.63;100.00
59531;BME280;45349;48.692;8.186;2023-01-25T07:26:02;100044.50;;;-0.69;100.00
59531;BME280;45349;48.692;8.186;2023-01-25T07:28:30;100042.91;;;-0.72;100.00
59531;BME280;45349;48.692;8.186;2023-01-25T07:31:03;100041.47;;;-0.82;100.00
59531;BME280;45349;48.692;8.186;2023-01-25T07:33:32;100040.75;;;-0.87;100.00
59531;BME280;45349;48.692;8.186;2023-01-25T07:36:02;100044.13;;;-0.85;100.00
59531;BME280;45349;48.692;8.186;2023-01-25T07:38:29;100046.94;;;-0.95;100.00
59531;BME280;45349;48.692;8.186;2023-01-25T07:40:57;100041.13;;;-1.01;100.00
59531;BME280;45349;48.692;8.186;2023-01-25T07:43:24;100037.69;;;-1.00;100.00
59531;BME280;45349;48.692;8.186;2023-01-25T07:45:51;100048.78;;;-1.00;100.00
59531;BME280;45349;48.692;8.186;2023-01-25T07:48:19;100050.41;;;-0.97;100.00
59531;BME280;45349;48.692;8.186;2023-01-25T07:50:46;100051.19;;;-0.94;100.00
59531;BME280;45349;48.692;8.186;2023-01-25T07:53:14;100048.72;;;-0.98;100.00
59531;BME280;45349;48.692;8.186;2023-01-25T07:55:41;100051.34;;;-1.00;100.00
59531;BME280;45349;48.692;8.186;2023-01-25T07:58:10;100051.38;;;-1.01;100.00
59531;BME280;45349;48.692;8.186;2023-01-25T08:00:37;100052.94;;;-0.96;100.00
59531;BME280;45349;48.692;8.186;2023-01-25T08:03:04;100061.34;;;-0.91;100.00
59531;BME280;45349;48.692;8.186;2023-01-25T08:05:32;100056.22;;;-0.91;100.00
59531;BME280;45349;48.692;8.186;2023-01-25T08:07:58;100057.91;;;-0.90;100.00
59531;BME280;45349;48.692;8.186;2023-01-25T08:10:25;100056.16;;;-0.89;100.00
59531;BME280;45349;48.692;8.186;2023-01-25T08:12:51;100061.19;;;-0.84;100.00
59531;BME280;45349;48.692;8.186;2023-01-25T08:15:19;100059.50;;;-0.85;100.00
59531;BME280;45349;48.692;8.186;2023-01-25T08:17:47;100055.19;;;-0.83;100.00
59531;BME280;45349;48.692;8.186;2023-01-25T08:20:13;100059.34;;;-0.79;100.00
59531;BME280;45349;48.692;8.186;2023-01-25T08:22:40;100062.63;;;-0.74;100.00
59531;BME280;45349;48.692;8.186;2023-01-25T08:25:07;100053.16;;;-0.72;100.00
59531;BME280;45349;48.692;8.186;2023-01-25T08:27:34;100053.88;;;-0.68;100.00
59531;BME280;45349;48.692;8.186;2023-01-25T08:30:00;100058.06;;;-0.64;100.00
59531;BME280;45349;48.692;8.186;2023-01-25T08:32:28;100055.47;;;-0.64;100.00
59531;BME280;45349;48.692;8.186;2023-01-25T08:34:55;100040.97;;;-0.65;100.00
59531;BME280;45349;48.692;8.186;2023-01-25T08:37:21;100032.31;;;-0.61;100.00
59531;BME280;45349;48.692;8.186;2023-01-25T08:39:48;100033.88;;;-0.55;100.00
59531;BME280;45349;48.692;8.186;2023-01-25T08:42:14;100038.06;;;-0.53;100.00
59531;BME280;45349;48.692;8.186;2023-01-25T08:44:41;100041.34;;;-0.48;100.00
59531;BME280;45349;48.692;8.186;2023-01-25T08:47:08;100042.84;;;-0.40;100.00
59531;BME280;45349;48.692;8.186;2023-01-25T08:49:36;100040.81;;;-0.31;100.00
59531;BME280;45349;48.692;8.186;2023-01-25T08:52:03;100036.53;;;-0.30;100.00
59531;BME280;45349;48.692;8.186;2023-01-25T08:54:30;100039.84;;;-0.26;100.00
59531;BME280;45349;48.692;8.186;2023-01-25T08:56:56;100035.59;;;-0.27;100.00
59531;BME280;45349;48.692;8.186;2023-01-25T08:59:23;100027.88;;;-0.26;100.00
59531;BME280;45349;48.692;8.186;2023-01-25T09:01:50;100036.47;;;-0.28;100.00
59531;BME280;45349;48.692;8.186;2023-01-25T09:04:16;100032.13;;;-0.26;100.00
59531;BME280;45349;48.692;8.186;2023-01-25T09:06:44;100031.22;;;-0.24;100.00
59531;BME280;45349;48.692;8.186;2023-01-25T09:09:11;100027.66;;;-0.20;100.00
59531;BME280;45349;48.692;8.186;2023-01-25T09:11:38;100030.56;;;-0.02;100.00
59531;BME280;45349;48.692;8.186;2023-01-25T09:14:05;100018.16;;;0.11;100.00
59531;BME280;45349;48.692;8.186;2023-01-25T09:16:31;100024.56;;;0.24;100.00
59531;BME280;45349;48.692;8.186;2023-01-25T09:19:00;100028.66;;;0.30;100.00
59531;BME280;45349;48.692;8.186;2023-01-25T09:21:27;100027.22;;;0.48;100.00
59531;BME280;45349;48.692;8.186;2023-01-25T09:23:56;100025.97;;;0.58;100.00
59531;BME280;45349;48.692;8.186;2023-01-25T09:26:23;100019.72;;;0.67;100.00
59531;BME280;45349;48.692;8.186;2023-01-25T09:28:51;100028.56;;;0.84;100.00
59531;BME280;45349;48.692;8.186;2023-01-25T09:31:18;100035.63;;;1.02;100.00
59531;BME280;45349;48.692;8.186;2023-01-25T09:34:00;100037.25;;;1.29;100.00
59531;BME280;45349;48.692;8.186;2023-01-25T09:39:11;100031.47;;;1.68;100.00
59531;BME280;45349;48.692;8.186;2023-01-25T09:42:00;100026.84;;;1.76;100.00
59531;BME280;45349;48.692;8.186;2023-01-25T09:44:40;100017.50;;;1.96;100.00
59531;BME280;45349;48.692;8.186;2023-01-25T09:47:17;100025.06;;;2.01;100.00
59531;BME280;45349;48.692;8.186;2023-01-25T09:50:07;100026.91;;;1.97;100.00
59531;BME280;45349;48.692;8.186;2023-01-25T09:52:55;100027.78;;;2.18;100.00
59531;BME280;45349;48.692;8.186;2023-01-25T09:55:27;100023.06;;;2.08;100.00
59531;BME280;45349;48.692;8.186;2023-01-25T09:57:55;100023.97;;;2.06;100.00
59531;BME280;45349;48.692;8.186;2023-01-25T10:00:28;100025.16;;;2.20;100.00
59531;BME280;45349;48.692;8.186;2023-01-25T10:03:00;100024.50;;;2.15;100.00
59531;BME280;45349;48.692;8.186;2023-01-25T10:05:31;100023.94;;;2.29;100.00
59531;BME280;45349;48.692;8.186;2023-01-25T10:08:04;100022.38;;;2.45;100.00
59531;BME280;45349;48.692;8.186;2023-01-25T10:10:36;100024.16;;;2.45;100.00
59531;BME280;45349;48.692;8.186;2023-01-25T10:13:07;100016.84;;;2.55;100.00
59531;BME280;45349;48.692;8.186;2023-01-25T10:15:38;100021.47;;;2.26;100.00
59531;BME280;45349;48.692;8.186;2023-01-25T10:18:15;100025.19;;;1.98;100.00
59531;BME280;45349;48.692;8.186;2023-01-25T10:20:48;100019.91;;;2.01;100.00
59531;BME280;45349;48.692;8.186;2023-01-25T10:23:35;100025.72;;;2.27;100.00
59531;BME280;45349;48.692;8.186;2023-01-25T10:26:11;100015.41;;;2.27;100.00
59531;BME280;45349;48.692;8.186;2023-01-25T10:28:44;100015.00;;;2.38;100.00
59531;BME280;45349;48.692;8.186;2023-01-25T10:31:16;100021.94;;;2.15;100.00
59531;BME280;45349;48.692;8.186;2023-01-25T10:33:45;100012.44;;;2.15;100.00
59531;BME280;45349;48.692;8.186;2023-01-25T10:36:14;100011.66;;;1.92;100.00
59531;BME280;45349;48.692;8.186;2023-01-25T10:38:43;100009.50;;;2.04;100.00
59531;BME280;45349;48.692;8.186;2023-01-25T10:41:16;100011.81;;;2.10;100.00
59531;BME280;45349;48.692;8.186;2023-01-25T10:43:45;99993.78;;;2.10;100.00
59531;BME280;45349;48.692;8.186;2023-01-25T10:46:17;99990.91;;;2.39;100.00
59531;BME280;45349;48.692;8.186;2023-01-25T10:48:44;99997.25;;;2.50;100.00
59531;BME280;45349;48.692;8.186;2023-01-25T10:51:27;99998.94;;;2.31;100.00
59531;BME280;45349;48.692;8.186;2023-01-25T10:53:58;99996.34;;;2.51;100.00
59531;BME280;45349;48.692;8.186;2023-01-25T10:56:29;99989.22;;;2.58;100.00
59531;BME280;45349;48.692;8.186;2023-01-25T10:59:06;99987.16;;;2.25;100.00
59531;BME280;45349;48.692;8.186;2023-01-25T11:01:35;99985.53;;;2.43;100.00
59531;BME280;45349;48.692;8.186;2023-01-25T11:04:02;99976.50;;;2.12;100.00
59531;BME280;45349;48.692;8.186;2023-01-25T11:06:47;99978.69;;;2.42;100.00
59531;BME280;45349;48.692;8.186;2023-01-25T11:09:38;99967.63;;;2.19;100.00
59531;BME280;45349;48.692;8.186;2023-01-25T11:12:16;99965.91;;;2.20;100.00
59531;BME280;45349;48.692;8.186;2023-01-25T11:14:44;99964.47;;;2.13;100.00
59531;BME280;45349;48.692;8.186;2023-01-25T11:17:22;99956.66;;;2.14;100.00
59531;BME280;45349;48.692;8.186;2023-01-25T11:20:04;99957.06;;;2.26;100.00
59531;BME280;45349;48.692;8.186;2023-01-25T11:22:31;99946.88;;;2.22;100.00
59531;BME280;45349;48.692;8.186;2023-01-25T11:24:58;99954.69;;;2.00;100.00
59531;BME280;45349;48.692;8.186;2023-01-25T11:27:26;99950.63;;;2.36;100.00
59531;BME280;45349;48.692;8.186;2023-01-25T11:30:07;99943.53;;;2.20;100.00
59531;BME280;45349;48.692;8.186;2023-01-25T11:32:34;99945.41;;;1.96;100.00
59531;BME280;45349;48.692;8.186;2023-01-25T11:35:10;99935.03;;;2.39;100.00
59531;BME280;45349;48.692;8.186;2023-01-25T11:37:45;99927.50;;;1.93;100.00
59531;BME280;45349;48.692;8.186;2023-01-25T11:40:22;99920.16;;;2.04;100.00
59531;BME280;45349;48.692;8.186;2023-01-25T11:43:02;99919.22;;;1.86;100.00
59531;BME280;45349;48.692;8.186;2023-01-25T11:46:01;99914.03;;;1.66;100.00
59531;BME280;45349;48.692;8.186;2023-01-25T11:48:46;99907.38;;;1.82;100.00
59531;BME280;45349;48.692;8.186;2023-01-25T11:51:20;99911.28;;;2.12;100.00
59531;BME280;45349;48.692;8.186;2023-01-25T11:53:59;99900.91;;;2.13;100.00
59531;BME280;45349;48.692;8.186;2023-01-25T11:56:40;99894.41;;;2.25;100.00
59531;BME280;45349;48.692;8.186;2023-01-25T11:59:38;99887.06;;;2.16;100.00
59531;BME280;45349;48.692;8.186;2023-01-25T12:02:45;99881.41;;;2.47;99.57
59531;BME280;45349;48.692;8.186;2023-01-25T12:05:24;99875.91;;;2.15;100.00
59531;BME280;45349;48.692;8.186;2023-01-25T12:08:03;99873.44;;;2.33;99.68
59531;BME280;45349;48.692;8.186;2023-01-25T12:10:39;99862.81;;;2.01;100.00
59531;BME280;45349;48.692;8.186;2023-01-25T12:13:15;99858.47;;;2.41;99.71
59531;BME280;45349;48.692;8.186;2023-01-25T12:15:58;99852.44;;;2.42;98.57
59531;BME280;45349;48.692;8.186;2023-01-25T12:18:59;99839.56;;;2.61;98.04
59531;BME280;45349;48.692;8.186;2023-01-25T12:21:43;99836.34;;;2.75;96.53
59531;BME280;45349;48.692;8.186;2023-01-25T12:24:30;99834.16;;;2.85;96.06
59531;BME280;45349;48.692;8.186;2023-01-25T12:27:04;99835.06;;;3.03;95.16
59531;BME280;45349;48.692;8.186;2023-01-25T12:29:37;99821.47;;;3.17;94.90
59531;BME280;45349;48.692;8.186;2023-01-25T12:32:11;99819.28;;;3.27;92.47
59531;BME280;45349;48.692;8.186;2023-01-25T12:34:41;99823.59;;;3.09;92.98
59531;BME280;45349;48.692;8.186;2023-01-25T12:37:12;99822.06;;;2.49;94.95
59531;BME280;45349;48.692;8.186;2023-01-25T12:39:44;99816.91;;;2.68;97.37
59531;BME280;45349;48.692;8.186;2023-01-25T12:42:17;99812.63;;;2.86;95.61
59531;BME280;45349;48.692;8.186;2023-01-25T12:44:48;99808.81;;;3.13;95.00
59531;BME280;45349;48.692;8.186;2023-01-25T12:47:22;99808.50;;;3.19;91.95
59531;BME280;45349;48.692;8.186;2023-01-25T12:49:52;99795.03;;;2.94;91.26
59531;BME280;45349;48.692;8.186;2023-01-25T12:52:23;99796.63;;;2.79;94.03
59531;BME280;45349;48.692;8.186;2023-01-25T12:54:54;99785.50;;;2.97;93.20
59531;BME280;45349;48.692;8.186;2023-01-25T12:57:25;99789.06;;;2.75;92.95
59531;BME280;45349;48.692;8.186;2023-01-25T13:00:00;99781.78;;;3.02;92.71
59531;BME280;45349;48.692;8.186;2023-01-25T13:03:11;99782.31;;;3.09;92.37
59531;BME280;45349;48.692;8.186;2023-01-25T13:05:46;99778.47;;;3.18;90.16
59531;BME280;45349;48.692;8.186;2023-01-25T13:08:26;99776.63;;;3.20;90.62
59531;BME280;45349;48.692;8.186;2023-01-25T13:11:06;99778.16;;;3.24;90.25
59531;BME280;45349;48.692;8.186;2023-01-25T13:13:34;99772.56;;;3.16;90.38